Time,TemperatureF,DewpointF,PressureIn,WindDirection,WindDirectionDegrees,WindSpeedMPH,WindSpeedGustMPH,Humidity,HourlyPrecipIn,Conditions,Clouds,dailyrainin,SoftwareType,DateUTC
2014-02-06 00:00:00,29.1,19.9,29.81,NNE,28,0.0,0.0,68,0.00,,---,0.00,VWS V14.01,2014-02-06 08:00:00,
2014-02-06 00:30:00,29.8,19.2,29.81,NNE,28,0.0,0.0,64,0.00,,---,0.00,VWS V14.01,2014-02-06 08:30:00,
2014-02-06 01:00:00,31.3,19.8,29.81,NNE,28,0.0,0.0,62,0.00,,---,0.00,VWS V14.01,2014-02-06 09:00:00,
2014-02-06 01:30:00,31.5,17.2,29.81,NNE,28,0.0,2.7,55,0.00,,---,0.00,VWS V14.01,2014-02-06 09:30:00,
2014-02-06 02:00:00,32.0,15.5,29.78,North,353,0.0,2.7,50,0.00,,---,0.00,VWS V14.01,2014-02-06 10:00:00,
2014-02-06 02:30:00,31.6,16.5,29.78,NNW,348,2.2,3.1,53,0.00,,---,0.00,VWS V14.01,2014-02-06 10:30:00,
2014-02-06 03:00:00,31.8,16.6,29.78,North,3,0.0,4.0,53,0.00,,---,0.00,VWS V14.01,2014-02-06 11:00:00,
2014-02-06 03:30:00,33.3,20.9,29.78,WNW,292,0.0,3.6,60,0.00,,---,0.00,VWS V14.01,2014-02-06 11:30:00,
2014-02-06 04:00:00,33.1,20.7,29.78,WSW,246,0.0,4.0,60,0.00,,---,0.00,VWS V14.01,2014-02-06 12:00:00,
2014-02-06 04:30:00,33.4,21.8,29.78,NNW,337,0.0,3.6,62,0.00,,---,0.00,VWS V14.01,2014-02-06 12:30:00,
2014-02-06 05:00:00,32.5,21.7,29.78,North,353,2.2,3.1,64,0.00,,---,0.00,VWS V14.01,2014-02-06 13:00:00,
2014-02-06 05:30:00,35.1,23.8,29.78,NNW,339,0.0,4.0,63,0.00,,---,0.00,VWS V14.01,2014-02-06 13:30:00,
2014-02-06 06:00:00,35.8,23.7,29.78,NNW,346,0.0,5.4,61,0.00,,---,0.00,VWS V14.01,2014-02-06 14:00:00,
2014-02-06 06:30:00,35.1,24.9,29.78,SW,222,2.2,6.3,66,0.00,,---,0.00,VWS V14.01,2014-02-06 14:30:00,
2014-02-06 07:00:00,35.2,26.5,29.78,North,2,0.0,5.4,70,0.00,,---,0.00,VWS V14.01,2014-02-06 15:00:00,
2014-02-06 07:30:00,35.2,26.5,29.78,North,353,2.7,8.1,70,0.00,,---,0.00,VWS V14.01,2014-02-06 15:30:00,
2014-02-06 08:00:00,36.7,25.7,29.78,WNW,301,5.8,6.3,64,0.00,,---,0.00,VWS V14.01,2014-02-06 16:00:00,
2014-02-06 08:30:00,41.5,24.8,29.78,SSE,168,2.7,5.8,51,0.00,,---,0.00,VWS V14.01,2014-02-06 16:30:00,
2014-02-06 09:00:00,43.9,23.9,29.78,North,357,4.0,8.1,45,0.00,,---,0.00,VWS V14.01,2014-02-06 17:00:00,
2014-02-06 09:30:00,45.1,25.1,29.78,North,353,0.0,8.1,45,0.00,,---,0.00,VWS V14.01,2014-02-06 17:30:00,
2014-02-06 10:00:00,46.9,26.2,29.78,WNW,289,5.8,9.6,44,0.00,,---,0.00,VWS V14.01,2014-02-06 18:00:00,
2014-02-06 10:30:00,44.1,24.1,29.81,South,185,8.7,9.6,45,0.00,,---,0.00,VWS V14.01,2014-02-06 18:30:00,
2014-02-06 11:00:00,41.4,22.1,29.81,SSE,149,3.1,10.5,46,0.00,,---,0.00,VWS V14.01,2014-02-06 19:00:00,
2014-02-06 11:30:00,41.2,23.0,29.81,SSE,155,2.7,8.7,48,0.00,,---,0.00,VWS V14.01,2014-02-06 19:30:00,
2014-02-06 12:00:00,38.8,26.2,29.78,SW,227,2.7,8.1,60,0.00,,---,0.00,VWS V14.01,2014-02-06 20:00:00,
2014-02-06 12:30:00,39.7,28.2,29.75,SSW,206,2.7,7.6,63,0.00,,---,0.00,VWS V14.01,2014-02-06 20:30:00,
2014-02-06 13:00:00,39.2,27.7,29.75,South,185,0.0,8.3,63,0.00,,---,0.00,VWS V14.01,2014-02-06 21:00:00,
2014-02-06 13:30:00,39.0,29.7,29.75,SW,218,3.6,8.3,69,0.00,,---,0.00,VWS V14.01,2014-02-06 21:30:00,
2014-02-06 14:00:00,38.7,29.7,29.75,West,272,4.9,6.7,70,0.00,,---,0.00,VWS V14.01,2014-02-06 22:00:00,
2014-02-06 14:30:00,38.5,29.6,29.72,SSE,168,2.7,8.7,70,0.00,,---,0.00,VWS V14.01,2014-02-06 22:30:00,
2014-02-06 15:00:00,38.8,30.3,29.75,NNE,27,0.0,9.2,71,0.00,,---,0.00,VWS V14.01,2014-02-06 23:00:00,
2014-02-06 15:30:00,38.7,30.8,29.75,WSW,242,3.1,8.1,73,0.00,,---,0.00,VWS V14.01,2014-02-06 23:30:00,
2014-02-06 16:00:00,38.5,32.2,29.75,SSW,201,3.1,8.7,78,0.00,,---,0.00,VWS V14.01,2014-02-07 00:00:00,
2014-02-06 16:30:00,38.5,33.2,29.75,SW,224,4.0,15.9,81,0.00,,---,0.00,VWS V14.01,2014-02-07 00:30:00,
2014-02-06 17:00:00,37.9,33.2,29.72,SSW,196,6.3,12.3,83,0.00,,---,0.00,VWS V14.01,2014-02-07 01:00:00,
2014-02-06 17:30:00,36.5,32.1,29.75,West,273,4.0,15.4,84,0.00,,---,0.00,VWS V14.01,2014-02-07 01:30:00,
2014-02-06 18:00:00,35.4,31.1,29.75,SE,137,2.2,10.5,84,0.00,,---,0.00,VWS V14.01,2014-02-07 02:00:00,
2014-02-06 18:30:00,36.0,31.9,29.75,WNW,303,2.7,8.7,85,0.00,,---,0.00,VWS V14.01,2014-02-07 02:30:00,
2014-02-06 19:00:00,36.9,33.4,29.75,SSW,195,5.8,10.1,87,0.00,,---,0.00,VWS V14.01,2014-02-07 03:00:00,
2014-02-06 19:30:00,37.4,34.2,29.75,WSW,241,4.0,8.1,88,0.00,,---,0.00,VWS V14.01,2014-02-07 03:30:00,
2014-02-06 20:00:00,37.6,34.6,29.75,WSW,251,2.2,9.6,89,0.00,,---,0.00,VWS V14.01,2014-02-07 04:00:00,
2014-02-06 20:30:00,37.8,34.8,29.75,SSW,210,3.6,10.5,89,0.00,,---,0.00,VWS V14.01,2014-02-07 04:30:00,
2014-02-06 21:00:00,38.1,35.2,29.75,SSW,193,2.7,8.7,89,0.00,,---,0.00,VWS V14.01,2014-02-07 05:00:00,
2014-02-06 21:30:00,38.3,35.6,29.78,ESE,123,0.0,6.3,90,0.00,,---,0.00,VWS V14.01,2014-02-07 05:30:00,
2014-02-06 22:00:00,38.3,35.6,29.78,NNE,13,0.0,5.4,90,0.00,,---,0.00,VWS V14.01,2014-02-07 06:00:00,
2014-02-06 22:30:00,37.9,35.3,29.78,NNW,342,2.7,5.4,90,0.00,,---,0.00,VWS V14.01,2014-02-07 06:30:00,
2014-02-06 23:00:00,37.9,35.3,29.78,NW,312,0.0,3.6,90,0.00,,---,0.00,VWS V14.01,2014-02-07 07:00:00,
2014-02-06 23:30:00,37.9,35.3,29.78,NNE,17,2.7,5.4,90,0.00,,---,0.00,VWS V14.01,2014-02-07 07:30:00,